Time;durP1;ratioP1;P1;durP2;ratioP2;P2;SDS_P1;SDS_P2;PMS_P1;PMS_P2;Temp;Humidity;BMP_temperature;BMP_pressure;BME280_temperature;BME280_humidity;BME280_pressure;Samples;Min_cycle;Max_cycle;Signal;HPM_P1;HPM_P2
2021/07/23 00:01:12;;;;;;;20.50;11.97;;;17.30;99.90;;;;;;4129537;28;20220;-74
2021/07/23 00:03:14;;;;;;;21.13;12.40;;;17.20;99.90;;;;;;4130603;28;20204;-74
2021/07/23 00:05:17;;;;;;;22.73;11.53;;;17.20;99.90;;;;;;4130978;28;20259;-74
2021/07/23 00:07:19;;;;;;;23.57;12.27;;;17.20;99.90;;;;;;4124656;28;20740;-76
2021/07/23 00:09:21;;;;;;;23.40;12.90;;;17.20;99.90;;;;;;4126610;28;20694;-76
2021/07/23 00:11:22;;;;;;;21.77;12.63;;;17.20;99.90;;;;;;4129416;28;20204;-76
2021/07/23 00:13:24;;;;;;;22.00;12.27;;;17.10;99.90;;;;;;4130755;28;20204;-76
2021/07/23 00:15:26;;;;;;;22.03;12.33;;;17.10;99.90;;;;;;4125547;28;20213;-76
2021/07/23 00:17:27;;;;;;;21.40;12.77;;;17.10;99.90;;;;;;4125067;28;20306;-76
2021/07/23 00:19:29;;;;;;;20.30;12.37;;;17.10;99.90;;;;;;4131098;28;20213;-76
2021/07/23 00:21:32;;;;;;;20.77;12.30;;;17.00;99.90;;;;;;4127711;28;20665;-76
2021/07/23 00:23:34;;;;;;;20.70;11.73;;;17.00;99.90;;;;;;4130491;28;20236;-76
2021/07/23 00:25:36;;;;;;;21.83;12.27;;;17.00;99.90;;;;;;4130843;28;20204;-76
2021/07/23 00:27:38;;;;;;;23.90;12.87;;;16.90;99.90;;;;;;4133138;28;20241;-76
2021/07/23 00:29:39;;;;;;;20.47;12.33;;;17.00;99.90;;;;;;4130376;28;20208;-76
2021/07/23 00:31:41;;;;;;;19.47;11.63;;;16.80;99.90;;;;;;4130861;28;20216;-76
2021/07/23 00:33:43;;;;;;;20.80;12.43;;;16.80;99.90;;;;;;4131303;28;20208;-76
2021/07/23 00:35:45;;;;;;;18.20;11.17;;;16.80;99.90;;;;;;4119562;28;20271;-76
2021/07/23 00:37:48;;;;;;;21.83;12.93;;;16.80;99.90;;;;;;4122274;28;20228;-75
2021/07/23 00:39:49;;;;;;;20.70;12.33;;;16.70;99.90;;;;;;4130230;28;20209;-76
2021/07/23 00:41:51;;;;;;;20.77;11.87;;;16.70;99.90;;;;;;4130383;28;20283;-76
2021/07/23 00:43:53;;;;;;;22.10;12.53;;;16.70;99.90;;;;;;4131071;28;20225;-75
2021/07/23 00:45:55;;;;;;;20.17;11.47;;;16.60;99.90;;;;;;4120941;28;20216;-76
2021/07/23 00:48:01;;;;;;;22.60;12.33;;;16.60;99.90;;;;;;4128978;28;20241;-76
2021/07/23 00:50:03;;;;;;;20.60;11.47;;;16.60;99.90;;;;;;4118245;28;20272;-76
2021/07/23 00:52:05;;;;;;;24.43;12.30;;;16.60;99.90;;;;;;4120874;28;20200;-76
2021/07/23 00:54:09;;;;;;;25.60;11.80;;;16.50;99.90;;;;;;4129210;28;20720;-74
2021/07/23 00:56:11;;;;;;;20.83;12.47;;;16.50;99.90;;;;;;4130982;28;20235;-74
2021/07/23 00:58:14;;;;;;;20.57;11.90;;;16.40;99.90;;;;;;4130797;28;20206;-74
2021/07/23 01:00:16;;;;;;;21.90;12.33;;;16.40;99.90;;;;;;4129611;28;20278;-74
2021/07/23 01:02:18;;;;;;;21.37;12.40;;;16.40;99.90;;;;;;4131146;28;20211;-74
2021/07/23 01:04:20;;;;;;;23.00;11.97;;;16.40;99.90;;;;;;4123033;28;20278;-74
2021/07/23 01:06:23;;;;;;;23.57;12.03;;;16.40;99.90;;;;;;4130277;28;20255;-76
2021/07/23 01:08:25;;;;;;;21.57;12.50;;;16.30;99.90;;;;;;4131498;28;20227;-76
2021/07/23 01:10:28;;;;;;;20.83;12.97;;;16.30;99.90;;;;;;4129745;28;20223;-75
2021/07/23 01:12:30;;;;;;;20.67;11.93;;;16.30;99.90;;;;;;4130538;28;20204;-76
2021/07/23 01:14:33;;;;;;;20.43;12.23;;;16.30;99.90;;;;;;4129931;28;20239;-76
2021/07/23 01:16:35;;;;;;;22.77;12.70;;;16.20;99.90;;;;;;4129617;28;20897;-76
2021/07/23 01:18:37;;;;;;;22.17;12.50;;;16.20;99.90;;;;;;4130474;28;20278;-76
2021/07/23 01:20:40;;;;;;;19.90;11.90;;;16.30;99.90;;;;;;4124307;28;20220;-76
2021/07/23 01:22:42;;;;;;;23.27;12.47;;;16.20;99.90;;;;;;4130987;28;20216;-75
2021/07/23 01:24:45;;;;;;;22.53;12.77;;;16.20;99.90;;;;;;4130617;28;20232;-75
2021/07/23 01:26:49;;;;;;;20.43;12.50;;;16.20;99.90;;;;;;4129535;28;20904;-75
2021/07/23 01:28:50;;;;;;;22.10;12.83;;;16.20;99.90;;;;;;4130484;28;20211;-75
2021/07/23 01:30:52;;;;;;;19.50;11.97;;;16.20;99.90;;;;;;4132113;28;20222;-76
2021/07/23 01:32:54;;;;;;;22.23;13.13;;;16.20;99.90;;;;;;4126711;28;20219;-76
2021/07/23 01:34:56;;;;;;;21.00;12.80;;;16.20;99.90;;;;;;4130885;28;20210;-76
2021/07/23 01:36:58;;;;;;;22.10;12.60;;;16.20;99.90;;;;;;4130406;28;20239;-75
2021/07/23 01:39:01;;;;;;;21.23;12.70;;;16.20;99.90;;;;;;4118492;28;20305;-75
2021/07/23 01:41:04;;;;;;;22.27;12.83;;;16.20;99.90;;;;;;4128879;28;20584;-75
2021/07/23 01:43:06;;;;;;;22.43;11.77;;;16.20;99.90;;;;;;4129263;28;20295;-76
2021/07/23 01:45:08;;;;;;;21.50;12.07;;;16.20;99.90;;;;;;4129557;28;20224;-75
2021/07/23 01:47:10;;;;;;;22.00;12.60;;;16.20;99.90;;;;;;4130932;28;20294;-75
2021/07/23 01:49:12;;;;;;;23.20;13.10;;;16.20;99.90;;;;;;4129165;28;20209;-75
2021/07/23 01:51:13;;;;;;;19.83;12.43;;;16.20;99.90;;;;;;4117460;28;20215;-75
2021/07/23 01:53:15;;;;;;;20.73;12.40;;;16.20;99.90;;;;;;4123841;28;20212;-76
2021/07/23 01:55:17;;;;;;;22.10;12.00;;;16.20;99.90;;;;;;4133856;28;20209;-75
2021/07/23 01:57:20;;;;;;;23.10;12.23;;;16.20;99.90;;;;;;4130958;28;20239;-75
2021/07/23 01:59:22;;;;;;;23.80;13.60;;;16.10;99.90;;;;;;4133025;28;20211;-76
2021/07/23 02:01:24;;;;;;;19.93;12.30;;;16.10;99.90;;;;;;4129637;28;20212;-75
2021/07/23 02:03:26;;;;;;;21.07;12.93;;;16.10;99.90;;;;;;4131906;28;20226;-75
2021/07/23 02:05:27;;;;;;;20.47;12.57;;;16.10;99.90;;;;;;4130593;28;20254;-75
2021/07/23 02:07:30;;;;;;;19.80;12.40;;;16.00;99.90;;;;;;4131256;28;21026;-75
2021/07/23 02:09:31;;;;;;;24.47;13.00;;;16.10;99.90;;;;;;4132755;28;20209;-75
2021/07/23 02:11:33;;;;;;;21.43;12.47;;;16.10;99.90;;;;;;4133632;28;20635;-75
2021/07/23 02:13:36;;;;;;;21.93;13.07;;;16.00;99.90;;;;;;4132583;28;20226;-75
2021/07/23 02:15:38;;;;;;;22.93;12.93;;;16.00;99.90;;;;;;4120393;28;20212;-75
2021/07/23 02:17:39;;;;;;;22.27;12.60;;;16.00;99.90;;;;;;4126809;28;20242;-75
2021/07/23 02:19:41;;;;;;;23.07;13.67;;;16.00;99.90;;;;;;4132057;28;20266;-75
2021/07/23 02:21:43;;;;;;;23.77;13.53;;;16.00;99.90;;;;;;4131080;28;20211;-75
2021/07/23 02:23:45;;;;;;;25.23;13.43;;;15.90;99.90;;;;;;4131360;28;20229;-75
2021/07/23 02:25:47;;;;;;;23.67;12.90;;;16.00;99.90;;;;;;4133657;28;20222;-74
2021/07/23 02:27:49;;;;;;;24.53;13.13;;;15.90;99.90;;;;;;4132474;28;20230;-73
2021/07/23 02:29:51;;;;;;;21.47;12.67;;;15.90;99.90;;;;;;4132355;28;20207;-73
2021/07/23 02:31:52;;;;;;;24.80;13.27;;;15.90;99.90;;;;;;4133096;28;20283;-73
2021/07/23 02:33:54;;;;;;;25.33;13.40;;;15.90;99.90;;;;;;4138845;28;20210;-73
2021/07/23 02:35:56;;;;;;;24.33;13.57;;;15.90;99.90;;;;;;4131878;28;20221;-73
2021/07/23 02:37:57;;;;;;;24.13;13.80;;;15.90;99.90;;;;;;4131928;28;20235;-73
2021/07/23 02:39:59;;;;;;;21.80;12.83;;;15.90;99.90;;;;;;4125579;28;20218;-74
2021/07/23 02:42:01;;;;;;;23.90;14.30;;;15.90;99.90;;;;;;4131025;28;20222;-74
2021/07/23 02:44:02;;;;;;;24.33;13.53;;;15.90;99.90;;;;;;4132811;28;20694;-73
2021/07/23 02:46:05;;;;;;;23.43;12.70;;;15.90;99.90;;;;;;4116240;28;20273;-75
2021/07/23 02:48:07;;;;;;;24.57;13.57;;;15.80;99.90;;;;;;4129104;28;20494;-75
2021/07/23 02:50:09;;;;;;;21.43;12.87;;;15.90;99.90;;;;;;4132169;28;20215;-75
2021/07/23 02:52:11;;;;;;;24.00;13.10;;;15.80;99.90;;;;;;4131941;28;20663;-75
2021/07/23 02:54:13;;;;;;;22.70;13.10;;;15.80;99.90;;;;;;4133359;28;20734;-75
2021/07/23 02:56:14;;;;;;;23.93;14.00;;;15.80;99.90;;;;;;4131822;28;20639;-75
2021/07/23 02:58:16;;;;;;;28.50;13.00;;;15.80;99.90;;;;;;4130776;28;20261;-76
2021/07/23 03:00:18;;;;;;;23.70;12.93;;;15.80;99.90;;;;;;4132550;28;20728;-75
2021/07/23 03:02:21;;;;;;;21.70;12.30;;;15.80;99.90;;;;;;4132181;28;20218;-75
2021/07/23 03:04:22;;;;;;;23.33;13.50;;;15.80;99.90;;;;;;4133146;28;20211;-75
2021/07/23 03:06:24;;;;;;;23.73;12.53;;;15.80;99.90;;;;;;4129872;28;20214;-75
2021/07/23 03:08:26;;;;;;;24.53;13.40;;;15.80;99.90;;;;;;4128855;28;20215;-75
2021/07/23 03:10:28;;;;;;;27.00;13.20;;;15.80;99.90;;;;;;4131706;28;20243;-75
2021/07/23 03:12:29;;;;;;;23.90;12.97;;;15.80;99.90;;;;;;4131053;28;20257;-75
2021/07/23 03:14:32;;;;;;;26.53;13.67;;;15.80;99.90;;;;;;4132532;28;20203;-75
2021/07/23 03:16:33;;;;;;;24.70;13.93;;;15.80;99.90;;;;;;4146975;23;20329;-79
2021/07/23 03:18:36;;;;;;;23.30;13.30;;;15.80;99.90;;;;;;4130156;28;20254;-79
2021/07/23 03:20:39;;;;;;;24.00;13.30;;;15.80;99.90;;;;;;4137440;28;20206;-79
2021/07/23 03:22:40;;;;;;;25.53;14.33;;;15.80;99.90;;;;;;4137955;28;20468;-79
2021/07/23 03:24:42;;;;;;;24.43;13.67;;;15.80;99.90;;;;;;4136694;28;20222;-79
2021/07/23 03:26:44;;;;;;;24.83;13.23;;;15.80;99.90;;;;;;4133409;28;20238;-79
2021/07/23 03:28:46;;;;;;;24.73;13.80;;;15.80;99.90;;;;;;4136588;28;20215;-79
2021/07/23 03:30:46;;;;;;;22.27;13.13;;;15.80;99.90;;;;;;4137281;28;20314;-79
2021/07/23 03:32:48;;;;;;;23.17;12.83;;;15.80;99.90;;;;;;4136335;28;20240;-79
2021/07/23 03:34:51;;;;;;;23.70;13.07;;;15.80;99.90;;;;;;4138528;28;20272;-79
2021/07/23 03:36:53;;;;;;;24.97;13.73;;;15.80;99.90;;;;;;4134800;28;20651;-79
2021/07/23 03:38:55;;;;;;;25.50;13.83;;;15.70;99.90;;;;;;4135679;28;20293;-79
2021/07/23 03:40:56;;;;;;;26.53;14.27;;;15.80;99.90;;;;;;4135908;28;20289;-79
2021/07/23 03:42:58;;;;;;;22.83;12.90;;;15.80;99.90;;;;;;4139779;28;20210;-79
2021/07/23 03:44:59;;;;;;;22.97;13.07;;;15.70;99.90;;;;;;4132538;28;20232;-79
2021/07/23 03:47:03;;;;;;;21.10;12.07;;;15.70;99.90;;;;;;4136131;28;20229;-79
2021/07/23 03:49:05;;;;;;;24.60;13.87;;;15.80;99.90;;;;;;4136276;28;20233;-79
2021/07/23 03:51:08;;;;;;;23.00;13.03;;;15.80;99.90;;;;;;4140628;28;20210;-79
2021/07/23 03:53:10;;;;;;;21.77;12.50;;;15.70;99.90;;;;;;4137784;28;20214;-79
2021/07/23 03:55:12;;;;;;;22.70;13.50;;;15.80;99.90;;;;;;4122598;28;20639;-79
2021/07/23 03:57:14;;;;;;;23.87;13.20;;;15.80;99.90;;;;;;4136190;28;20707;-79
2021/07/23 03:59:15;;;;;;;25.20;13.60;;;15.80;99.90;;;;;;4135400;28;20214;-79
2021/07/23 04:01:17;;;;;;;22.23;12.50;;;15.80;99.90;;;;;;4135212;28;20649;-79
2021/07/23 04:03:19;;;;;;;23.13;13.37;;;15.80;99.90;;;;;;4122464;28;20583;-79
2021/07/23 04:05:20;;;;;;;22.70;13.10;;;15.80;99.90;;;;;;4134917;28;20284;-79
2021/07/23 04:07:24;;;;;;;22.40;12.73;;;15.90;99.90;;;;;;4135471;28;20239;-79
2021/07/23 04:09:25;;;;;;;22.43;12.80;;;15.90;99.90;;;;;;4135938;28;20239;-79
2021/07/23 04:11:31;;;;;;;22.87;12.93;;;15.90;99.90;;;;;;4137550;28;20245;-79
2021/07/23 04:13:33;;;;;;;22.53;13.27;;;15.90;99.90;;;;;;4135955;28;20247;-79
2021/07/23 04:15:34;;;;;;;20.90;12.83;;;15.90;99.90;;;;;;4135094;28;20235;-79
2021/07/23 04:17:38;;;;;;;24.63;13.53;;;15.90;99.90;;;;;;4135093;28;20239;-80
2021/07/23 04:19:40;;;;;;;22.37;12.60;;;16.00;99.90;;;;;;4132975;28;20271;-80
2021/07/23 04:21:42;;;;;;;21.63;12.20;;;16.00;99.90;;;;;;4134029;28;20216;-80
2021/07/23 04:23:45;;;;;;;22.60;13.30;;;16.00;99.90;;;;;;4132713;28;20212;-79
2021/07/23 04:25:46;;;;;;;25.37;13.43;;;16.20;99.90;;;;;;4134776;28;20232;-79
2021/07/23 04:27:48;;;;;;;23.43;13.53;;;16.00;99.90;;;;;;4135642;28;20570;-79
2021/07/23 04:29:50;;;;;;;23.90;13.10;;;16.00;99.90;;;;;;4134620;28;20234;-79
2021/07/23 04:31:51;;;;;;;23.13;13.73;;;16.00;99.90;;;;;;4141180;28;20212;-79
2021/07/23 04:33:53;;;;;;;25.07;13.37;;;16.00;99.90;;;;;;4122845;28;20220;-79
2021/07/23 04:35:55;;;;;;;24.20;13.53;;;16.00;99.90;;;;;;4118706;28;20675;-79
2021/07/23 04:37:57;;;;;;;21.80;12.23;;;16.00;99.90;;;;;;4133368;28;20231;-79
2021/07/23 04:40:01;;;;;;;22.23;12.53;;;16.00;99.90;;;;;;4139301;28;20412;-79
2021/07/23 04:42:05;;;;;;;20.63;12.23;;;16.00;99.90;;;;;;4129102;28;20258;-79
2021/07/23 04:44:07;;;;;;;24.60;13.07;;;16.00;99.90;;;;;;4134782;28;20245;-79
2021/07/23 04:46:09;;;;;;;22.57;13.50;;;16.00;99.90;;;;;;4144143;28;20235;-79
2021/07/23 04:48:11;;;;;;;23.57;13.53;;;16.10;99.90;;;;;;4136331;28;20212;-79
2021/07/23 04:50:13;;;;;;;22.37;12.80;;;16.10;99.90;;;;;;4140653;28;20658;-79
2021/07/23 04:52:15;;;;;;;23.87;13.10;;;16.10;99.90;;;;;;4135136;28;20214;-79
2021/07/23 04:54:17;;;;;;;23.87;13.07;;;16.10;99.90;;;;;;4135745;28;20684;-79
2021/07/23 04:56:21;;;;;;;23.53;12.97;;;16.10;99.90;;;;;;4136869;28;20215;-79
2021/07/23 04:58:22;;;;;;;23.83;13.07;;;16.20;99.90;;;;;;4134478;28;20347;-79
2021/07/23 05:00:24;;;;;;;21.63;12.77;;;16.20;99.90;;;;;;4135986;28;20650;-79
2021/07/23 05:02:26;;;;;;;23.20;13.27;;;16.20;99.90;;;;;;4151766;28;20267;-79
2021/07/23 05:04:28;;;;;;;24.10;13.83;;;16.10;99.90;;;;;;4136340;28;20218;-79
2021/07/23 05:06:30;;;;;;;22.57;13.33;;;16.20;99.90;;;;;;4118396;28;20280;-79
2021/07/23 05:08:32;;;;;;;24.27;13.67;;;16.20;99.90;;;;;;4119150;28;20583;-79
2021/07/23 05:10:33;;;;;;;21.37;12.63;;;16.20;99.90;;;;;;4136651;28;20204;-79
2021/07/23 05:12:38;;;;;;;22.30;12.97;;;16.20;99.90;;;;;;4133365;28;20264;-79
2021/07/23 05:14:40;;;;;;;22.90;13.50;;;16.20;99.90;;;;;;4135556;28;20290;-79
2021/07/23 05:16:42;;;;;;;22.70;13.40;;;16.20;99.90;;;;;;4130115;28;20685;-79
2021/07/23 05:18:44;;;;;;;23.90;13.77;;;16.20;99.90;;;;;;4134112;28;20292;-80
2021/07/23 05:20:46;;;;;;;23.37;13.27;;;16.30;99.90;;;;;;4141306;28;20261;-80
2021/07/23 05:22:48;;;;;;;23.70;13.50;;;16.30;99.90;;;;;;4134390;28;20212;-79
2021/07/23 05:24:50;;;;;;;23.40;14.13;;;16.30;99.90;;;;;;4118630;28;20717;-79
2021/07/23 05:26:51;;;;;;;25.33;13.60;;;16.30;99.90;;;;;;4137727;28;20261;-79
2021/07/23 05:28:55;;;;;;;23.00;13.83;;;16.50;99.90;;;;;;4134830;28;20624;-79
2021/07/23 05:30:56;;;;;;;22.20;13.60;;;16.40;99.90;;;;;;4139549;28;20216;-79
2021/07/23 05:32:58;;;;;;;26.00;13.67;;;16.40;99.90;;;;;;4137641;28;20663;-79
2021/07/23 05:35:00;;;;;;;24.27;14.00;;;16.40;99.90;;;;;;4132484;28;20245;-79
2021/07/23 05:37:02;;;;;;;23.03;13.37;;;16.40;99.90;;;;;;4140351;28;20236;-79
2021/07/23 05:39:03;;;;;;;23.13;13.40;;;16.50;99.90;;;;;;4135649;28;20584;-79
2021/07/23 05:41:09;;;;;;;25.17;14.23;;;16.50;99.90;;;;;;4135128;28;20261;-79
2021/07/23 05:43:13;;;;;;;24.83;13.40;;;16.50;99.90;;;;;;4131645;28;20259;-79
2021/07/23 05:45:16;;;;;;;22.30;13.77;;;16.50;99.90;;;;;;4137087;28;20219;-79
2021/07/23 05:47:18;;;;;;;33.67;14.00;;;16.50;99.90;;;;;;4143001;28;20231;-79
2021/07/23 05:49:20;;;;;;;25.57;14.40;;;16.60;99.90;;;;;;4145464;28;20211;-79
2021/07/23 05:51:22;;;;;;;24.90;13.50;;;16.60;99.90;;;;;;4135682;28;20255;-79
2021/07/23 05:53:23;;;;;;;23.23;13.97;;;16.60;99.90;;;;;;4143026;28;20742;-79
2021/07/23 05:55:25;;;;;;;23.23;13.23;;;16.70;99.90;;;;;;4129381;28;20206;-79
2021/07/23 05:57:27;;;;;;;21.80;13.33;;;16.70;99.90;;;;;;4132302;28;20240;-79
2021/07/23 05:59:29;;;;;;;24.57;13.67;;;16.60;99.90;;;;;;4133077;28;20231;-78
2021/07/23 06:01:32;;;;;;;23.67;13.47;;;16.70;99.90;;;;;;4132436;28;20219;-79
2021/07/23 06:03:34;;;;;;;25.60;13.90;;;16.80;99.90;;;;;;4134585;28;20232;-79
2021/07/23 06:05:36;;;;;;;27.10;14.53;;;16.80;99.90;;;;;;4132594;28;20686;-79
2021/07/23 06:07:38;;;;;;;23.60;14.63;;;17.00;99.90;;;;;;4146225;28;20227;-79
2021/07/23 06:09:40;;;;;;;25.90;14.70;;;16.90;99.90;;;;;;4136089;28;20213;-79
2021/07/23 06:11:41;;;;;;;24.80;14.93;;;16.90;99.90;;;;;;4131945;28;20311;-79
2021/07/23 06:13:43;;;;;;;25.80;14.70;;;17.00;99.90;;;;;;4140840;28;20212;-79
2021/07/23 06:15:45;;;;;;;26.50;14.27;;;17.00;99.90;;;;;;4148487;28;20216;-79
2021/07/23 06:17:48;;;;;;;27.27;14.37;;;17.10;99.90;;;;;;4127875;28;20261;-79
2021/07/23 06:19:49;;;;;;;31.07;16.50;;;17.10;99.90;;;;;;4126398;28;20214;-79
2021/07/23 06:21:51;;;;;;;32.33;16.60;;;17.20;99.90;;;;;;4130787;28;20208;-79
2021/07/23 06:23:53;;;;;;;30.07;16.43;;;17.20;99.90;;;;;;4127964;28;20209;-79
2021/07/23 06:25:55;;;;;;;31.00;16.10;;;17.30;99.90;;;;;;4132636;28;20682;-79
2021/07/23 06:27:56;;;;;;;31.17;15.57;;;17.30;99.90;;;;;;4133387;28;20257;-79
2021/07/23 06:29:58;;;;;;;30.63;15.87;;;17.40;99.90;;;;;;4130370;28;20209;-79
2021/07/23 06:32:00;;;;;;;25.43;14.83;;;17.40;99.90;;;;;;4133319;28;20596;-79
2021/07/23 06:34:03;;;;;;;24.53;14.57;;;17.50;99.90;;;;;;4134897;28;20232;-79
2021/07/23 06:36:05;;;;;;;26.43;15.33;;;17.60;99.90;;;;;;4137245;28;20625;-79
2021/07/23 06:38:06;;;;;;;29.20;15.47;;;17.60;99.90;;;;;;4138004;28;20240;-79
2021/07/23 06:40:09;;;;;;;28.27;15.90;;;17.70;99.90;;;;;;4133775;28;20236;-79
2021/07/23 06:42:11;;;;;;;36.27;16.60;;;17.80;99.90;;;;;;4130295;28;20274;-79
2021/07/23 06:44:13;;;;;;;34.33;17.30;;;17.90;99.90;;;;;;4137430;28;20213;-79
2021/07/23 06:46:14;;;;;;;32.10;16.73;;;18.00;99.90;;;;;;4132170;28;20240;-79
2021/07/23 06:48:16;;;;;;;34.53;16.67;;;18.00;99.90;;;;;;4127960;28;20198;-79
2021/07/23 06:50:19;;;;;;;30.13;16.80;;;18.10;99.90;;;;;;4129174;28;20558;-79
2021/07/23 06:52:21;;;;;;;30.70;16.10;;;18.20;99.90;;;;;;4133302;28;20222;-79
2021/07/23 06:54:23;;;;;;;23.63;14.50;;;18.30;99.90;;;;;;4134067;28;20265;-79
2021/07/23 06:56:24;;;;;;;30.10;15.57;;;18.40;99.90;;;;;;4127561;28;20207;-79
2021/07/23 06:58:26;;;;;;;26.67;15.40;;;18.50;99.90;;;;;;4130982;28;20245;-79
2021/07/23 07:00:28;;;;;;;29.73;15.17;;;18.50;99.90;;;;;;4139610;28;20255;-79
2021/07/23 07:02:29;;;;;;;28.37;15.90;;;18.70;99.90;;;;;;4138051;28;20221;-79
2021/07/23 07:04:32;;;;;;;30.33;16.70;;;18.70;99.90;;;;;;4132203;28;20625;-79
2021/07/23 07:06:35;;;;;;;26.10;15.20;;;18.80;99.90;;;;;;4131045;28;20243;-79
2021/07/23 07:08:36;;;;;;;25.93;15.13;;;18.80;99.90;;;;;;4138188;28;20210;-80
2021/07/23 07:10:38;;;;;;;24.40;14.20;;;18.90;99.90;;;;;;4134489;28;20206;-79
2021/07/23 07:12:43;;;;;;;23.37;14.70;;;19.00;99.90;;;;;;4135228;28;20258;-80
2021/07/23 07:14:44;;;;;;;22.87;14.07;;;19.10;99.90;;;;;;4132450;28;20219;-80
2021/07/23 07:16:46;;;;;;;22.70;13.80;;;19.20;99.90;;;;;;4137944;28;20275;-80
2021/07/23 07:18:50;;;;;;;22.13;13.60;;;19.30;99.90;;;;;;4140478;28;20254;-80
2021/07/23 07:20:51;;;;;;;25.63;13.73;;;19.40;99.90;;;;;;4138212;28;20219;-80
2021/07/23 07:22:55;;;;;;;21.77;13.80;;;19.50;99.90;;;;;;4135196;28;20218;-80
2021/07/23 07:24:57;;;;;;;21.70;13.80;;;19.60;99.90;;;;;;4138082;28;20211;-81
2021/07/23 07:26:58;;;;;;;24.53;13.57;;;19.60;99.90;;;;;;4132683;28;20775;-81
2021/07/23 07:29:00;;;;;;;23.23;13.70;;;19.70;99.90;;;;;;4138708;28;20218;-82
2021/07/23 07:31:02;;;;;;;21.03;13.13;;;19.80;99.90;;;;;;4135199;28;20223;-81
2021/07/23 07:33:04;;;;;;;21.93;12.93;;;19.80;99.90;;;;;;4134097;28;20259;-81
2021/07/23 07:35:07;;;;;;;20.30;12.67;;;20.00;99.90;;;;;;4138631;28;20290;-82
2021/07/23 07:37:08;;;;;;;19.90;13.50;;;20.10;99.90;;;;;;4138675;28;20241;-81
2021/07/23 07:39:13;;;;;;;22.50;13.33;;;20.20;99.90;;;;;;4137602;28;20846;-81
2021/07/23 07:41:17;;;;;;;22.00;13.07;;;20.30;99.90;;;;;;4136066;28;20211;-81
2021/07/23 07:43:18;;;;;;;20.13;12.93;;;20.40;99.90;;;;;;4139169;28;20308;-82
2021/07/23 07:45:20;;;;;;;20.67;12.63;;;20.50;99.90;;;;;;4146605;28;20266;-81
2021/07/23 07:47:22;;;;;;;17.20;11.73;;;20.50;99.90;;;;;;4144643;28;20236;-81
2021/07/23 07:49:23;;;;;;;19.33;12.13;;;20.70;99.90;;;;;;4146012;28;20215;-81
2021/07/23 07:51:25;;;;;;;17.57;11.43;;;20.70;99.90;;;;;;4140471;28;20220;-82
2021/07/23 07:53:27;;;;;;;18.20;12.47;;;20.80;99.90;;;;;;4137683;28;20253;-83
2021/07/23 07:55:30;;;;;;;19.10;11.83;;;20.90;99.90;;;;;;4137119;28;20224;-82
2021/07/23 07:57:32;;;;;;;19.93;11.93;;;21.00;99.90;;;;;;4135461;28;20234;-82
2021/07/23 07:59:40;;;;;;;19.30;12.27;;;21.10;99.90;;;;;;4148086;28;20212;-82
2021/07/23 08:01:42;;;;;;;18.60;12.43;;;21.20;99.90;;;;;;4137245;28;20212;-82
2021/07/23 08:03:43;;;;;;;19.23;12.07;;;21.30;99.90;;;;;;4143104;28;20208;-81
2021/07/23 08:05:45;;;;;;;19.90;12.33;;;21.40;99.90;;;;;;4138922;28;20634;-81
2021/07/23 08:07:48;;;;;;;19.60;12.03;;;21.50;99.90;;;;;;4136942;28;20237;-80
2021/07/23 08:09:52;;;;;;;18.67;11.97;;;21.50;99.90;;;;;;4121969;28;20213;-81
2021/07/23 08:11:56;;;;;;;21.00;12.83;;;21.50;99.90;;;;;;4127595;28;20670;-80
2021/07/23 08:13:58;;;;;;;19.00;12.43;;;21.60;99.90;;;;;;4135726;28;20206;-81
2021/07/23 08:16:00;;;;;;;18.53;12.50;;;21.60;99.90;;;;;;4127472;28;20221;-81
2021/07/23 08:18:03;;;;;;;19.20;12.30;;;21.60;99.90;;;;;;4132082;28;20259;-81
2021/07/23 08:20:06;;;;;;;19.50;12.30;;;21.70;99.90;;;;;;4135432;28;20865;-81
2021/07/23 08:22:09;;;;;;;18.53;12.37;;;21.80;99.90;;;;;;4127378;28;20209;-81
2021/07/23 08:24:10;;;;;;;16.93;11.73;;;21.80;99.90;;;;;;4129226;28;20209;-81
2021/07/23 08:26:12;;;;;;;19.90;12.57;;;21.90;99.90;;;;;;4136850;28;20216;-81
2021/07/23 08:28:16;;;;;;;19.00;11.93;;;21.90;99.90;;;;;;4136353;28;20219;-81
2021/07/23 08:30:18;;;;;;;19.47;11.47;;;22.00;99.90;;;;;;4138843;28;20280;-81
2021/07/23 08:32:20;;;;;;;17.23;11.93;;;22.00;99.90;;;;;;4135540;28;20213;-81
2021/07/23 08:34:21;;;;;;;17.77;12.43;;;22.10;99.90;;;;;;4137144;28;20307;-81
2021/07/23 08:36:23;;;;;;;16.97;11.43;;;22.10;99.90;;;;;;4132892;28;20214;-81
2021/07/23 08:38:25;;;;;;;16.97;11.47;;;22.20;99.90;;;;;;4134009;28;20205;-81
2021/07/23 08:40:27;;;;;;;18.57;11.60;;;22.20;99.90;;;;;;4133621;28;20216;-81
2021/07/23 08:42:33;;;;;;;19.43;11.70;;;22.30;99.90;;;;;;4134701;28;20214;-82
2021/07/23 08:44:40;;;;;;;18.33;12.43;;;22.30;99.90;;;;;;4137720;28;20216;-81
2021/07/23 08:46:42;;;;;;;20.17;12.97;;;22.40;99.80;;;;;;4141177;28;20248;-81
2021/07/23 08:48:44;;;;;;;23.30;13.63;;;22.40;99.70;;;;;;4135120;28;20276;-81
2021/07/23 08:50:45;;;;;;;21.27;14.20;;;22.50;99.90;;;;;;4135487;28;20209;-82
2021/07/23 08:52:50;;;;;;;19.53;12.43;;;22.60;99.90;;;;;;4133572;28;20209;-81
2021/07/23 08:54:52;;;;;;;20.40;12.87;;;22.50;99.20;;;;;;4135585;28;20629;-81
2021/07/23 08:56:53;;;;;;;20.27;12.80;;;22.70;99.20;;;;;;4135657;28;20229;-81
2021/07/23 08:58:55;;;;;;;19.90;12.63;;;22.80;99.00;;;;;;4139198;28;20218;-82
2021/07/23 09:00:59;;;;;;;18.67;12.53;;;22.80;98.50;;;;;;4144771;28;20593;-81
2021/07/23 09:03:02;;;;;;;19.03;12.40;;;23.00;98.50;;;;;;4138019;28;20297;-82
2021/07/23 09:05:14;;;;;;;21.83;13.47;;;23.10;97.90;;;;;;4136988;28;20220;-82
2021/07/23 09:07:30;;;;;;;18.73;12.17;;;23.10;97.40;;;;;;4138233;28;20231;-82
2021/07/23 09:09:32;;;;;;;19.97;12.30;;;23.30;97.40;;;;;;4136638;28;20204;-81
2021/07/23 09:11:34;;;;;;;18.23;12.03;;;23.30;97.30;;;;;;4132901;28;20212;-82
2021/07/23 09:13:35;;;;;;;17.80;11.97;;;23.40;97.00;;;;;;4134108;28;20236;-81
2021/07/23 09:15:40;;;;;;;20.27;13.00;;;23.50;96.80;;;;;;4149935;28;20231;-81
2021/07/23 09:17:42;;;;;;;20.40;13.23;;;23.60;96.10;;;;;;4162079;23;20261;-76
2021/07/23 09:19:44;;;;;;;20.27;12.87;;;23.60;95.00;;;;;;4147107;28;20216;-76
2021/07/23 09:21:46;;;;;;;18.87;12.63;;;23.60;95.30;;;;;;4147256;28;20589;-76
2021/07/23 09:23:56;;;;;;;18.40;11.80;;;23.70;95.30;;;;;;4147600;28;20257;-76
2021/07/23 09:25:58;;;;;;;19.20;12.67;;;23.80;95.40;;;;;;4146237;28;20199;-76
2021/07/23 09:27:59;;;;;;;21.27;13.30;;;23.80;94.50;;;;;;4149467;28;20258;-76
2021/07/23 09:30:01;;;;;;;21.77;13.47;;;23.90;93.90;;;;;;4137488;28;20211;-76
2021/07/23 09:32:07;;;;;;;23.13;13.90;;;24.00;93.50;;;;;;4140174;28;20212;-76
2021/07/23 09:34:10;;;;;;;22.80;13.77;;;24.00;92.60;;;;;;4142291;28;20716;-79
2021/07/23 09:36:13;;;;;;;21.77;13.97;;;24.10;92.80;;;;;;4143237;28;20212;-77
2021/07/23 09:38:14;;;;;;;22.60;13.83;;;24.10;93.50;;;;;;4145091;28;20228;-79
2021/07/23 09:40:15;;;;;;;23.43;13.70;;;24.30;93.80;;;;;;4147155;28;20196;-78
2021/07/23 09:42:21;;;;;;;19.87;13.20;;;24.30;93.10;;;;;;4142550;28;20827;-78
2021/07/23 09:44:26;;;;;;;20.43;13.70;;;24.40;92.90;;;;;;4148468;28;20220;-79
2021/07/23 09:46:34;;;;;;;20.17;12.87;;;24.40;92.40;;;;;;4147108;28;20208;-78
2021/07/23 09:48:35;;;;;;;19.17;12.57;;;24.40;91.90;;;;;;4146301;28;20258;-79
2021/07/23 09:50:40;;;;;;;18.27;12.10;;;24.40;92.50;;;;;;4147848;28;20208;-79
2021/07/23 09:52:43;;;;;;;18.97;12.57;;;24.50;93.00;;;;;;4146723;28;20195;-79
2021/07/23 09:54:44;;;;;;;21.63;13.00;;;24.50;92.10;;;;;;4135214;28;20212;-80
2021/07/23 09:56:47;;;;;;;20.37;13.00;;;24.50;92.20;;;;;;4141386;28;20213;-81
2021/07/23 09:58:55;;;;;;;20.40;12.60;;;24.50;92.30;;;;;;4142024;28;20215;-79
2021/07/23 10:00:57;;;;;;;24.03;14.27;;;24.50;92.30;;;;;;4149068;28;20199;-80
2021/07/23 10:02:59;;;;;;;24.37;13.93;;;24.50;92.00;;;;;;4152907;28;20215;-80
2021/07/23 10:05:04;;;;;;;22.17;13.67;;;24.60;91.60;;;;;;4152808;28;20254;-80
2021/07/23 10:07:12;;;;;;;20.20;12.90;;;24.60;91.60;;;;;;4155093;28;20236;-81
2021/07/23 10:09:19;;;;;;;20.30;12.17;;;24.60;90.40;;;;;;4153053;28;20212;-78
2021/07/23 10:11:22;;;;;;;20.00;12.20;;;24.60;90.00;;;;;;4154301;28;20201;-80
2021/07/23 10:13:27;;;;;;;19.50;12.37;;;24.70;89.80;;;;;;4152477;28;20235;-79
2021/07/23 10:15:30;;;;;;;17.97;11.53;;;24.70;89.40;;;;;;4157504;28;20208;-79
2021/07/23 10:17:34;;;;;;;17.67;11.80;;;24.70;90.40;;;;;;4153168;28;20236;-80
2021/07/23 10:19:37;;;;;;;19.83;12.93;;;24.80;88.70;;;;;;4153468;28;20216;-79
2021/07/23 10:21:39;;;;;;;18.67;12.50;;;24.70;90.00;;;;;;4149194;28;20270;-78